sensor_id;sensor_type;location;lat;lon;timestamp;temperature;humidity
35804;DHT22;21924;51.934;7.414;2023-01-04T00:02:14;6.50;99.90
35804;DHT22;21924;51.934;7.414;2023-01-04T00:04:59;6.60;99.90
35804;DHT22;21924;51.934;7.414;2023-01-04T00:07:43;6.60;99.90
35804;DHT22;21924;51.934;7.414;2023-01-04T00:10:27;6.60;99.90
35804;DHT22;21924;51.934;7.414;2023-01-04T00:13:11;6.70;99.90
35804;DHT22;21924;51.934;7.414;2023-01-04T00:15:56;6.70;99.90
35804;DHT22;21924;51.934;7.414;2023-01-04T00:18:41;6.70;99.90
35804;DHT22;21924;51.934;7.414;2023-01-04T00:21:28;6.80;99.90
35804;DHT22;21924;51.934;7.414;2023-01-04T00:24:12;6.80;99.90
35804;DHT22;21924;51.934;7.414;2023-01-04T00:26:58;6.90;99.90
35804;DHT22;21924;51.934;7.414;2023-01-04T00:29:42;6.80;99.90
35804;DHT22;21924;51.934;7.414;2023-01-04T00:32:27;6.90;99.90
35804;DHT22;21924;51.934;7.414;2023-01-04T00:35:11;6.90;99.90
35804;DHT22;21924;51.934;7.414;2023-01-04T00:37:55;6.90;99.90
35804;DHT22;21924;51.934;7.414;2023-01-04T00:40:39;7.00;99.90
35804;DHT22;21924;51.934;7.414;2023-01-04T00:43:24;7.00;99.90
35804;DHT22;21924;51.934;7.414;2023-01-04T00:46:08;7.10;99.90
35804;DHT22;21924;51.934;7.414;2023-01-04T00:48:54;7.10;99.90
35804;DHT22;21924;51.934;7.414;2023-01-04T00:51:40;7.20;99.90
35804;DHT22;21924;51.934;7.414;2023-01-04T00:54:26;7.20;99.90
35804;DHT22;21924;51.934;7.414;2023-01-04T00:57:11;7.20;99.90
35804;DHT22;21924;51.934;7.414;2023-01-04T00:59:55;7.30;99.90
35804;DHT22;21924;51.934;7.414;2023-01-04T01:02:39;7.30;99.90
35804;DHT22;21924;51.934;7.414;2023-01-04T01:05:24;7.30;99.90
35804;DHT22;21924;51.934;7.414;2023-01-04T01:08:09;7.40;99.90
35804;DHT22;21924;51.934;7.414;2023-01-04T01:11:09;7.40;99.90
35804;DHT22;21924;51.934;7.414;2023-01-04T01:13:54;7.40;99.90
35804;DHT22;21924;51.934;7.414;2023-01-04T01:16:38;7.40;99.90
35804;DHT22;21924;51.934;7.414;2023-01-04T01:19:23;7.40;99.90
35804;DHT22;21924;51.934;7.414;2023-01-04T01:22:07;7.50;99.90
35804;DHT22;21924;51.934;7.414;2023-01-04T01:24:52;7.50;99.90
35804;DHT22;21924;51.934;7.414;2023-01-04T01:27:36;7.50;99.90
35804;DHT22;21924;51.934;7.414;2023-01-04T01:30:20;7.50;99.90
35804;DHT22;21924;51.934;7.414;2023-01-04T01:33:04;7.50;99.90
35804;DHT22;21924;51.934;7.414;2023-01-04T01:35:49;7.50;99.90
35804;DHT22;21924;51.934;7.414;2023-01-04T01:38:33;7.50;99.90
35804;DHT22;21924;51.934;7.414;2023-01-04T01:41:24;7.50;99.90
35804;DHT22;21924;51.934;7.414;2023-01-04T01:46:56;7.40;99.90
35804;DHT22;21924;51.934;7.414;2023-01-04T01:49:41;7.50;99.90
35804;DHT22;21924;51.934;7.414;2023-01-04T01:52:30;7.50;99.90
35804;DHT22;21924;51.934;7.414;2023-01-04T01:55:15;7.50;99.90
35804;DHT22;21924;51.934;7.414;2023-01-04T01:58:01;7.50;99.90
35804;DHT22;21924;51.934;7.414;2023-01-04T02:00:47;7.50;99.90
35804;DHT22;21924;51.934;7.414;2023-01-04T02:03:41;7.50;99.90
35804;DHT22;21924;51.934;7.414;2023-01-04T02:06:30;7.50;99.90
35804;DHT22;21924;51.934;7.414;2023-01-04T02:09:16;7.50;99.90
35804;DHT22;21924;51.934;7.414;2023-01-04T02:12:01;7.50;99.90
35804;DHT22;21924;51.934;7.414;2023-01-04T02:14:48;7.50;99.90
35804;DHT22;21924;51.934;7.414;2023-01-04T02:17:42;7.50;99.90
35804;DHT22;21924;51.934;7.414;2023-01-04T02:20:49;7.50;99.90
35804;DHT22;21924;51.934;7.414;2023-01-04T02:27:11;7.50;99.90
35804;DHT22;21924;51.934;7.414;2023-01-04T02:37:02;7.50;99.90
35804;DHT22;21924;51.934;7.414;2023-01-04T02:43:12;7.50;99.90
35804;DHT22;21924;51.934;7.414;2023-01-04T02:46:29;7.50;99.90
35804;DHT22;21924;51.934;7.414;2023-01-04T02:49:14;7.50;99.90
35804;DHT22;21924;51.934;7.414;2023-01-04T02:52:19;7.50;99.90
35804;DHT22;21924;51.934;7.414;2023-01-04T02:55:05;7.50;99.90
35804;DHT22;21924;51.934;7.414;2023-01-04T02:58:00;7.50;99.90
35804;DHT22;21924;51.934;7.414;2023-01-04T03:01:09;7.50;99.90
35804;DHT22;21924;51.934;7.414;2023-01-04T03:04:30;7.50;99.90
35804;DHT22;21924;51.934;7.414;2023-01-04T03:07:57;7.60;99.90
35804;DHT22;21924;51.934;7.414;2023-01-04T03:11:08;7.60;99.90
35804;DHT22;21924;51.934;7.414;2023-01-04T03:14:14;7.60;99.90
35804;DHT22;21924;51.934;7.414;2023-01-04T03:17:03;7.60;99.90
35804;DHT22;21924;51.934;7.414;2023-01-04T03:19:50;7.60;99.90
35804;DHT22;21924;51.934;7.414;2023-01-04T03:22:49;7.60;99.90
35804;DHT22;21924;51.934;7.414;2023-01-04T03:26:25;7.70;99.90
35804;DHT22;21924;51.934;7.414;2023-01-04T03:32:46;7.70;99.90
35804;DHT22;21924;51.934;7.414;2023-01-04T03:38:58;7.70;99.90
35804;DHT22;21924;51.934;7.414;2023-01-04T03:42:18;7.80;99.90
35804;DHT22;21924;51.934;7.414;2023-01-04T03:45:26;7.80;99.90
35804;DHT22;21924;51.934;7.414;2023-01-04T03:48:37;7.80;99.90
35804;DHT22;21924;51.934;7.414;2023-01-04T03:51:25;7.80;99.90
35804;DHT22;21924;51.934;7.414;2023-01-04T03:54:15;7.80;99.90
35804;DHT22;21924;51.934;7.414;2023-01-04T03:57:02;7.90;99.90
35804;DHT22;21924;51.934;7.414;2023-01-04T03:59:49;7.90;99.90
35804;DHT22;21924;51.934;7.414;2023-01-04T04:02:38;7.90;99.90
35804;DHT22;21924;51.934;7.414;2023-01-04T04:05:23;8.00;99.90
35804;DHT22;21924;51.934;7.414;2023-01-04T04:08:26;8.00;99.90
35804;DHT22;21924;51.934;7.414;2023-01-04T04:11:13;8.00;99.90
35804;DHT22;21924;51.934;7.414;2023-01-04T04:14:13;8.00;99.90
35804;DHT22;21924;51.934;7.414;2023-01-04T04:16:57;8.00;99.90
35804;DHT22;21924;51.934;7.414;2023-01-04T04:19:42;8.10;99.90
35804;DHT22;21924;51.934;7.414;2023-01-04T04:22:26;8.10;99.90
35804;DHT22;21924;51.934;7.414;2023-01-04T04:25:10;8.10;99.90
35804;DHT22;21924;51.934;7.414;2023-01-04T04:27:54;8.10;99.90
35804;DHT22;21924;51.934;7.414;2023-01-04T04:30:39;8.10;99.90
35804;DHT22;21924;51.934;7.414;2023-01-04T04:33:24;8.20;99.90
35804;DHT22;21924;51.934;7.414;2023-01-04T04:36:09;8.20;99.90
35804;DHT22;21924;51.934;7.414;2023-01-04T04:38:54;8.20;99.90
35804;DHT22;21924;51.934;7.414;2023-01-04T04:41:39;8.20;99.90
35804;DHT22;21924;51.934;7.414;2023-01-04T04:44:24;8.20;99.90
35804;DHT22;21924;51.934;7.414;2023-01-04T04:47:08;8.30;99.90
35804;DHT22;21924;51.934;7.414;2023-01-04T04:49:53;8.30;99.90
35804;DHT22;21924;51.934;7.414;2023-01-04T04:52:37;8.30;99.90
35804;DHT22;21924;51.934;7.414;2023-01-04T04:55:24;8.30;99.90
35804;DHT22;21924;51.934;7.414;2023-01-04T04:58:08;8.40;99.90
35804;DHT22;21924;51.934;7.414;2023-01-04T05:00:52;8.40;99.90
35804;DHT22;21924;51.934;7.414;2023-01-04T05:03:37;8.40;99.90
35804;DHT22;21924;51.934;7.414;2023-01-04T05:06:21;8.40;99.90
35804;DHT22;21924;51.934;7.414;2023-01-04T05:09:06;8.40;99.90
35804;DHT22;21924;51.934;7.414;2023-01-04T05:11:50;8.40;99.90
35804;DHT22;21924;51.934;7.414;2023-01-04T05:14:53;8.50;99.90
35804;DHT22;21924;51.934;7.414;2023-01-04T05:17:38;8.50;99.90
35804;DHT22;21924;51.934;7.414;2023-01-04T05:20:23;8.50;99.90
35804;DHT22;21924;51.934;7.414;2023-01-04T05:23:08;8.60;99.90
35804;DHT22;21924;51.934;7.414;2023-01-04T05:25:59;8.60;99.90
35804;DHT22;21924;51.934;7.414;2023-01-04T05:28:43;8.60;99.90
35804;DHT22;21924;51.934;7.414;2023-01-04T05:31:28;8.60;99.90
35804;DHT22;21924;51.934;7.414;2023-01-04T05:34:12;8.60;99.90
35804;DHT22;21924;51.934;7.414;2023-01-04T05:36:56;8.60;99.90
35804;DHT22;21924;51.934;7.414;2023-01-04T05:39:41;8.60;99.90
35804;DHT22;21924;51.934;7.414;2023-01-04T05:42:25;8.70;99.90
35804;DHT22;21924;51.934;7.414;2023-01-04T05:45:12;8.70;99.90
35804;DHT22;21924;51.934;7.414;2023-01-04T05:47:56;8.70;99.90
35804;DHT22;21924;51.934;7.414;2023-01-04T05:50:41;8.80;99.90
35804;DHT22;21924;51.934;7.414;2023-01-04T05:53:25;8.80;99.90
35804;DHT22;21924;51.934;7.414;2023-01-04T05:56:09;8.80;99.90
35804;DHT22;21924;51.934;7.414;2023-01-04T05:58:53;8.80;99.90
35804;DHT22;21924;51.934;7.414;2023-01-04T06:01:38;8.80;99.90
35804;DHT22;21924;51.934;7.414;2023-01-04T06:04:22;8.90;99.90
35804;DHT22;21924;51.934;7.414;2023-01-04T06:07:06;8.80;99.90
35804;DHT22;21924;51.934;7.414;2023-01-04T06:09:50;8.90;99.90
35804;DHT22;21924;51.934;7.414;2023-01-04T06:12:35;8.90;99.90
35804;DHT22;21924;51.934;7.414;2023-01-04T06:15:19;8.90;99.90
35804;DHT22;21924;51.934;7.414;2023-01-04T06:18:04;9.00;99.90
35804;DHT22;21924;51.934;7.414;2023-01-04T06:20:50;9.00;99.90
35804;DHT22;21924;51.934;7.414;2023-01-04T06:23:34;9.10;99.90
35804;DHT22;21924;51.934;7.414;2023-01-04T06:26:19;9.10;99.90
35804;DHT22;21924;51.934;7.414;2023-01-04T06:29:03;9.10;99.90
35804;DHT22;21924;51.934;7.414;2023-01-04T06:31:47;9.10;99.90
35804;DHT22;21924;51.934;7.414;2023-01-04T06:34:32;9.10;99.90
35804;DHT22;21924;51.934;7.414;2023-01-04T06:37:16;9.10;99.90
35804;DHT22;21924;51.934;7.414;2023-01-04T06:40:00;9.20;99.90
35804;DHT22;21924;51.934;7.414;2023-01-04T06:42:45;9.20;99.90
35804;DHT22;21924;51.934;7.414;2023-01-04T06:45:29;9.20;99.90
35804;DHT22;21924;51.934;7.414;2023-01-04T06:48:13;9.30;99.90
35804;DHT22;21924;51.934;7.414;2023-01-04T06:50:57;9.30;99.90
35804;DHT22;21924;51.934;7.414;2023-01-04T06:53:42;9.30;99.90
35804;DHT22;21924;51.934;7.414;2023-01-04T06:56:26;9.30;99.90
35804;DHT22;21924;51.934;7.414;2023-01-04T06:59:10;9.30;99.90
35804;DHT22;21924;51.934;7.414;2023-01-04T07:01:55;9.30;99.90
35804;DHT22;21924;51.934;7.414;2023-01-04T07:04:39;9.40;99.90
35804;DHT22;21924;51.934;7.414;2023-01-04T07:07:24;9.30;99.90
35804;DHT22;21924;51.934;7.414;2023-01-04T07:10:09;9.40;99.90
35804;DHT22;21924;51.934;7.414;2023-01-04T07:12:53;9.40;99.90
35804;DHT22;21924;51.934;7.414;2023-01-04T07:15:37;9.40;99.90
35804;DHT22;21924;51.934;7.414;2023-01-04T07:18:21;9.40;99.90
35804;DHT22;21924;51.934;7.414;2023-01-04T07:21:06;9.50;99.90
35804;DHT22;21924;51.934;7.414;2023-01-04T07:23:50;9.50;99.90
35804;DHT22;21924;51.934;7.414;2023-01-04T07:26:34;9.50;99.90
35804;DHT22;21924;51.934;7.414;2023-01-04T07:29:19;9.50;99.90
35804;DHT22;21924;51.934;7.414;2023-01-04T07:32:05;9.50;99.90
35804;DHT22;21924;51.934;7.414;2023-01-04T07:34:49;9.50;99.90
35804;DHT22;21924;51.934;7.414;2023-01-04T07:37:33;9.50;99.90
35804;DHT22;21924;51.934;7.414;2023-01-04T07:40:18;9.50;99.90
35804;DHT22;21924;51.934;7.414;2023-01-04T07:43:02;9.60;99.90
35804;DHT22;21924;51.934;7.414;2023-01-04T07:45:47;9.60;99.90
35804;DHT22;21924;51.934;7.414;2023-01-04T07:48:31;9.60;99.90
35804;DHT22;21924;51.934;7.414;2023-01-04T07:51:15;9.60;99.90
35804;DHT22;21924;51.934;7.414;2023-01-04T07:53:59;9.70;99.90
35804;DHT22;21924;51.934;7.414;2023-01-04T07:56:45;9.70;99.90
35804;DHT22;21924;51.934;7.414;2023-01-04T07:59:30;9.70;99.90
35804;DHT22;21924;51.934;7.414;2023-01-04T08:02:14;9.70;99.90
35804;DHT22;21924;51.934;7.414;2023-01-04T08:04:58;9.70;99.90
35804;DHT22;21924;51.934;7.414;2023-01-04T08:07:43;9.70;99.90
35804;DHT22;21924;51.934;7.414;2023-01-04T08:10:27;9.80;99.90
35804;DHT22;21924;51.934;7.414;2023-01-04T08:13:12;9.80;99.90
35804;DHT22;21924;51.934;7.414;2023-01-04T08:15:56;9.90;99.90
35804;DHT22;21924;51.934;7.414;2023-01-04T08:18:40;9.90;99.90
35804;DHT22;21924;51.934;7.414;2023-01-04T08:21:27;9.90;99.90
35804;DHT22;21924;51.934;7.414;2023-01-04T08:24:14;9.90;99.90
35804;DHT22;21924;51.934;7.414;2023-01-04T08:26:58;9.90;99.90
35804;DHT22;21924;51.934;7.414;2023-01-04T08:29:42;9.90;99.90
35804;DHT22;21924;51.934;7.414;2023-01-04T08:32:27;9.90;99.90
35804;DHT22;21924;51.934;7.414;2023-01-04T08:35:11;9.90;99.90
35804;DHT22;21924;51.934;7.414;2023-01-04T08:37:55;9.90;99.90
35804;DHT22;21924;51.934;7.414;2023-01-04T08:40:40;9.90;99.90
35804;DHT22;21924;51.934;7.414;2023-01-04T08:43:24;9.90;99.90
35804;DHT22;21924;51.934;7.414;2023-01-04T08:46:09;10.00;99.90
35804;DHT22;21924;51.934;7.414;2023-01-04T08:48:53;9.90;99.90
35804;DHT22;21924;51.934;7.414;2023-01-04T08:51:38;10.00;99.90
35804;DHT22;21924;51.934;7.414;2023-01-04T08:54:22;9.90;99.90
35804;DHT22;21924;51.934;7.414;2023-01-04T08:57:06;10.00;99.90
35804;DHT22;21924;51.934;7.414;2023-01-04T08:59:50;9.90;99.90
35804;DHT22;21924;51.934;7.414;2023-01-04T09:02:35;10.00;99.90
35804;DHT22;21924;51.934;7.414;2023-01-04T09:05:19;10.00;99.90
35804;DHT22;21924;51.934;7.414;2023-01-04T09:08:04;10.00;99.90
35804;DHT22;21924;51.934;7.414;2023-01-04T09:10:47;10.00;99.90
35804;DHT22;21924;51.934;7.414;2023-01-04T09:13:33;10.10;99.90
35804;DHT22;21924;51.934;7.414;2023-01-04T09:16:19;10.10;99.90
35804;DHT22;21924;51.934;7.414;2023-01-04T09:19:03;10.10;99.90
35804;DHT22;21924;51.934;7.414;2023-01-04T09:21:48;10.10;99.90
35804;DHT22;21924;51.934;7.414;2023-01-04T09:24:32;10.10;99.90
35804;DHT22;21924;51.934;7.414;2023-01-04T09:27:17;10.10;99.90
35804;DHT22;21924;51.934;7.414;2023-01-04T09:30:01;10.10;99.90
35804;DHT22;21924;51.934;7.414;2023-01-04T09:32:45;10.10;99.90
35804;DHT22;21924;51.934;7.414;2023-01-04T09:35:30;10.10;99.90
35804;DHT22;21924;51.934;7.414;2023-01-04T09:38:14;10.10;99.90
35804;DHT22;21924;51.934;7.414;2023-01-04T09:41:16;10.10;99.90
35804;DHT22;21924;51.934;7.414;2023-01-04T09:47:02;10.10;99.90
35804;DHT22;21924;51.934;7.414;2023-01-04T09:49:58;10.20;99.90
35804;DHT22;21924;51.934;7.414;2023-01-04T09:53:17;10.20;99.90
35804;DHT22;21924;51.934;7.414;2023-01-04T09:56:12;10.20;99.90
35804;DHT22;21924;51.934;7.414;2023-01-04T09:59:06;10.20;99.90
35804;DHT22;21924;51.934;7.414;2023-01-04T10:01:58;10.20;99.90
35804;DHT22;21924;51.934;7.414;2023-01-04T10:04:52;10.30;99.90
35804;DHT22;21924;51.934;7.414;2023-01-04T10:07:36;10.30;99.90
35804;DHT22;21924;51.934;7.414;2023-01-04T10:10:42;10.40;99.90
35804;DHT22;21924;51.934;7.414;2023-01-04T10:13:48;10.40;99.90
35804;DHT22;21924;51.934;7.414;2023-01-04T10:23:16;10.50;99.90
35804;DHT22;21924;51.934;7.414;2023-01-04T10:34:58;10.50;99.90
35804;DHT22;21924;51.934;7.414;2023-01-04T10:37:45;10.60;99.90
35804;DHT22;21924;51.934;7.414;2023-01-04T10:40:34;10.60;99.90
35804;DHT22;21924;51.934;7.414;2023-01-04T10:46:28;10.70;99.90
35804;DHT22;21924;51.934;7.414;2023-01-04T10:49:20;10.60;99.90
35804;DHT22;21924;51.934;7.414;2023-01-04T10:52:11;10.60;99.90
35804;DHT22;21924;51.934;7.414;2023-01-04T10:54:58;10.60;99.90
35804;DHT22;21924;51.934;7.414;2023-01-04T10:58:13;10.70;99.90
35804;DHT22;21924;51.934;7.414;2023-01-04T11:01:04;10.70;99.90
35804;DHT22;21924;51.934;7.414;2023-01-04T11:03:58;10.70;99.90
35804;DHT22;21924;51.934;7.414;2023-01-04T11:06:57;10.70;99.90
35804;DHT22;21924;51.934;7.414;2023-01-04T11:09:50;10.70;99.90
35804;DHT22;21924;51.934;7.414;2023-01-04T11:12:35;10.80;99.90
35804;DHT22;21924;51.934;7.414;2023-01-04T11:15:20;10.80;99.90
35804;DHT22;21924;51.934;7.414;2023-01-04T11:18:05;10.80;99.90
35804;DHT22;21924;51.934;7.414;2023-01-04T11:20:50;10.70;99.90
35804;DHT22;21924;51.934;7.414;2023-01-04T11:23:35;10.80;99.90
35804;DHT22;21924;51.934;7.414;2023-01-04T11:26:23;10.90;99.90
35804;DHT22;21924;51.934;7.414;2023-01-04T11:29:40;10.90;99.90
35804;DHT22;21924;51.934;7.414;2023-01-04T11:35:48;10.90;99.90
35804;DHT22;21924;51.934;7.414;2023-01-04T11:38:32;10.90;99.90
35804;DHT22;21924;51.934;7.414;2023-01-04T11:41:17;10.90;99.90
35804;DHT22;21924;51.934;7.414;2023-01-04T11:44:04;10.90;99.90
35804;DHT22;21924;51.934;7.414;2023-01-04T11:47:06;11.00;99.90
35804;DHT22;21924;51.934;7.414;2023-01-04T11:49:51;11.00;99.90
35804;DHT22;21924;51.934;7.414;2023-01-04T11:52:36;11.00;99.90
35804;DHT22;21924;51.934;7.414;2023-01-04T11:55:26;11.00;99.90
35804;DHT22;21924;51.934;7.414;2023-01-04T11:58:13;11.00;99.90
35804;DHT22;21924;51.934;7.414;2023-01-04T12:00:58;11.00;99.90
35804;DHT22;21924;51.934;7.414;2023-01-04T12:03:42;11.00;99.90
35804;DHT22;21924;51.934;7.414;2023-01-04T12:06:35;11.00;99.90
35804;DHT22;21924;51.934;7.414;2023-01-04T12:09:21;11.00;99.90
35804;DHT22;21924;51.934;7.414;2023-01-04T12:12:06;11.00;99.90
35804;DHT22;21924;51.934;7.414;2023-01-04T12:14:50;11.00;99.90
35804;DHT22;21924;51.934;7.414;2023-01-04T12:17:47;11.00;99.90
35804;DHT22;21924;51.934;7.414;2023-01-04T12:20:32;11.10;99.90
35804;DHT22;21924;51.934;7.414;2023-01-04T12:23:19;11.00;99.90
35804;DHT22;21924;51.934;7.414;2023-01-04T12:26:03;11.10;99.90
35804;DHT22;21924;51.934;7.414;2023-01-04T12:32:39;11.10;99.90
35804;DHT22;21924;51.934;7.414;2023-01-04T12:39:01;11.10;99.90
35804;DHT22;21924;51.934;7.414;2023-01-04T12:54:03;11.20;99.90
35804;DHT22;21924;51.934;7.414;2023-01-04T13:00:05;11.20;99.90
35804;DHT22;21924;51.934;7.414;2023-01-04T13:03:33;11.30;99.90
35804;DHT22;21924;51.934;7.414;2023-01-04T13:06:20;11.30;99.90
35804;DHT22;21924;51.934;7.414;2023-01-04T13:09:20;11.30;99.90
35804;DHT22;21924;51.934;7.414;2023-01-04T13:12:26;11.40;99.90
35804;DHT22;21924;51.934;7.414;2023-01-04T13:15:51;11.30;99.90
35804;DHT22;21924;51.934;7.414;2023-01-04T13:24:33;11.40;99.90
35804;DHT22;21924;51.934;7.414;2023-01-04T13:27:20;11.50;99.90
35804;DHT22;21924;51.934;7.414;2023-01-04T13:30:05;11.50;99.90
35804;DHT22;21924;51.934;7.414;2023-01-04T13:32:49;11.50;99.90
35804;DHT22;21924;51.934;7.414;2023-01-04T13:35:34;11.40;99.90
35804;DHT22;21924;51.934;7.414;2023-01-04T13:38:18;11.50;99.90
35804;DHT22;21924;51.934;7.414;2023-01-04T13:41:15;11.50;99.90
35804;DHT22;21924;51.934;7.414;2023-01-04T13:44:11;11.50;99.90
35804;DHT22;21924;51.934;7.414;2023-01-04T13:46:59;11.50;99.90
35804;DHT22;21924;51.934;7.414;2023-01-04T13:49:44;11.50;99.90
35804;DHT22;21924;51.934;7.414;2023-01-04T13:52:29;11.60;99.90
35804;DHT22;21924;51.934;7.414;2023-01-04T13:55:20;11.60;99.90
35804;DHT22;21924;51.934;7.414;2023-01-04T13:58:14;11.60;99.90
35804;DHT22;21924;51.934;7.414;2023-01-04T14:01:05;11.60;99.90
35804;DHT22;21924;51.934;7.414;2023-01-04T14:04:05;11.70;99.90
35804;DHT22;21924;51.934;7.414;2023-01-04T14:06:52;11.70;99.90
35804;DHT22;21924;51.934;7.414;2023-01-04T14:09:58;11.70;99.90
35804;DHT22;21924;51.934;7.414;2023-01-04T14:12:45;11.70;99.90
35804;DHT22;21924;51.934;7.414;2023-01-04T14:15:30;11.70;99.90
35804;DHT22;21924;51.934;7.414;2023-01-04T14:18:25;11.70;99.90
35804;DHT22;21924;51.934;7.414;2023-01-04T14:21:17;11.70;99.90
35804;DHT22;21924;51.934;7.414;2023-01-04T14:24:01;11.70;99.90
35804;DHT22;21924;51.934;7.414;2023-01-04T14:26:46;11.70;99.90
35804;DHT22;21924;51.934;7.414;2023-01-04T14:29:30;11.70;99.90
35804;DHT22;21924;51.934;7.414;2023-01-04T14:32:15;11.70;99.90
35804;DHT22;21924;51.934;7.414;2023-01-04T14:35:09;11.70;99.90
35804;DHT22;21924;51.934;7.414;2023-01-04T14:38:02;11.70;99.90
35804;DHT22;21924;51.934;7.414;2023-01-04T14:40:47;11.60;99.90
35804;DHT22;21924;51.934;7.414;2023-01-04T14:43:33;11.70;99.90
35804;DHT22;21924;51.934;7.414;2023-01-04T14:46:20;11.70;99.90
35804;DHT22;21924;51.934;7.414;2023-01-04T14:49:04;11.70;99.90
35804;DHT22;21924;51.934;7.414;2023-01-04T14:51:57;11.70;99.90
35804;DHT22;21924;51.934;7.414;2023-01-04T14:54:41;11.80;99.90
35804;DHT22;21924;51.934;7.414;2023-01-04T14:57:25;11.70;99.90
35804;DHT22;21924;51.934;7.414;2023-01-04T15:00:16;11.70;99.90
35804;DHT22;21924;51.934;7.414;2023-01-04T15:03:01;11.70;99.90
35804;DHT22;21924;51.934;7.414;2023-01-04T15:05:45;11.70;99.90
35804;DHT22;21924;51.934;7.414;2023-01-04T15:08:30;11.70;99.90
35804;DHT22;21924;51.934;7.414;2023-01-04T15:11:14;11.70;99.90
35804;DHT22;21924;51.934;7.414;2023-01-04T15:13:58;11.70;99.90
35804;DHT22;21924;51.934;7.414;2023-01-04T15:16:42;11.70;99.90
35804;DHT22;21924;51.934;7.414;2023-01-04T15:19:27;11.70;99.90
35804;DHT22;21924;51.934;7.414;2023-01-04T15:22:11;11.70;99.90
35804;DHT22;21924;51.934;7.414;2023-01-04T15:24:55;11.70;99.90
35804;DHT22;21924;51.934;7.414;2023-01-04T15:27:39;11.70;99.90
35804;DHT22;21924;51.934;7.414;2023-01-04T15:30:24;11.60;99.90
35804;DHT22;21924;51.934;7.414;2023-01-04T15:33:08;11.70;99.90
35804;DHT22;21924;51.934;7.414;2023-01-04T15:36:04;11.70;99.90
35804;DHT22;21924;51.934;7.414;2023-01-04T15:38:52;11.70;99.90
35804;DHT22;21924;51.934;7.414;2023-01-04T15:41:36;11.60;99.90
35804;DHT22;21924;51.934;7.414;2023-01-04T15:44:41;11.60;99.90
35804;DHT22;21924;51.934;7.414;2023-01-04T15:47:28;11.60;99.90
35804;DHT22;21924;51.934;7.414;2023-01-04T15:50:12;11.60;99.90
35804;DHT22;21924;51.934;7.414;2023-01-04T15:52:56;11.60;99.90
35804;DHT22;21924;51.934;7.414;2023-01-04T15:55:41;11.60;99.90
35804;DHT22;21924;51.934;7.414;2023-01-04T15:58:25;11.70;99.90
35804;DHT22;21924;51.934;7.414;2023-01-04T16:01:14;11.70;99.90
35804;DHT22;21924;51.934;7.414;2023-01-04T16:03:58;11.70;99.90
35804;DHT22;21924;51.934;7.414;2023-01-04T16:06:42;11.60;99.90
35804;DHT22;21924;51.934;7.414;2023-01-04T16:09:27;11.60;99.90
35804;DHT22;21924;51.934;7.414;2023-01-04T16:12:11;11.60;99.90
35804;DHT22;21924;51.934;7.414;2023-01-04T16:15:17;11.70;99.90
35804;DHT22;21924;51.934;7.414;2023-01-04T16:18:01;11.70;99.90
35804;DHT22;21924;51.934;7.414;2023-01-04T16:20:46;11.60;99.90
35804;DHT22;21924;51.934;7.414;2023-01-04T16:23:30;11.60;99.90
35804;DHT22;21924;51.934;7.414;2023-01-04T16:26:14;11.70;99.90
35804;DHT22;21924;51.934;7.414;2023-01-04T16:28:59;11.70;99.90
35804;DHT22;21924;51.934;7.414;2023-01-04T16:31:43;11.70;99.90
35804;DHT22;21924;51.934;7.414;2023-01-04T16:34:28;11.70;99.90
35804;DHT22;21924;51.934;7.414;2023-01-04T16:37:12;11.70;99.90
35804;DHT22;21924;51.934;7.414;2023-01-04T16:39:56;11.70;99.90
35804;DHT22;21924;51.934;7.414;2023-01-04T16:42:40;11.70;99.90
35804;DHT22;21924;51.934;7.414;2023-01-04T16:45:25;11.70;99.90
35804;DHT22;21924;51.934;7.414;2023-01-04T16:48:09;11.70;99.90
35804;DHT22;21924;51.934;7.414;2023-01-04T16:50:54;11.70;99.90
35804;DHT22;21924;51.934;7.414;2023-01-04T16:53:38;11.70;99.90
35804;DHT22;21924;51.934;7.414;2023-01-04T16:56:23;11.70;99.90
35804;DHT22;21924;51.934;7.414;2023-01-04T16:59:11;11.70;99.90
35804;DHT22;21924;51.934;7.414;2023-01-04T17:01:56;11.60;99.90
35804;DHT22;21924;51.934;7.414;2023-01-04T17:04:40;11.70;99.90
35804;DHT22;21924;51.934;7.414;2023-01-04T17:07:25;11.60;99.90
35804;DHT22;21924;51.934;7.414;2023-01-04T17:10:15;11.70;99.90
35804;DHT22;21924;51.934;7.414;2023-01-04T17:12:59;11.70;99.90
35804;DHT22;21924;51.934;7.414;2023-01-04T17:15:44;11.80;99.90
35804;DHT22;21924;51.934;7.414;2023-01-04T17:18:29;11.70;99.90
35804;DHT22;21924;51.934;7.414;2023-01-04T17:21:15;11.70;99.90
35804;DHT22;21924;51.934;7.414;2023-01-04T17:24:00;11.70;99.90
35804;DHT22;21924;51.934;7.414;2023-01-04T17:26:44;11.70;99.90
35804;DHT22;21924;51.934;7.414;2023-01-04T17:29:28;11.60;99.90
35804;DHT22;21924;51.934;7.414;2023-01-04T17:32:12;11.70;99.90
35804;DHT22;21924;51.934;7.414;2023-01-04T17:34:57;11.60;99.90
35804;DHT22;21924;51.934;7.414;2023-01-04T17:37:41;11.60;99.90
35804;DHT22;21924;51.934;7.414;2023-01-04T17:40:26;11.60;99.90
35804;DHT22;21924;51.934;7.414;2023-01-04T17:43:10;11.60;99.90
35804;DHT22;21924;51.934;7.414;2023-01-04T17:45:54;11.60;99.90
35804;DHT22;21924;51.934;7.414;2023-01-04T17:48:44;11.70;99.90
35804;DHT22;21924;51.934;7.414;2023-01-04T17:51:28;11.60;99.90
35804;DHT22;21924;51.934;7.414;2023-01-04T17:54:13;11.70;99.90
35804;DHT22;21924;51.934;7.414;2023-01-04T17:56:57;11.70;99.90
35804;DHT22;21924;51.934;7.414;2023-01-04T17:59:41;11.70;99.90
35804;DHT22;21924;51.934;7.414;2023-01-04T18:02:26;11.70;99.90
35804;DHT22;21924;51.934;7.414;2023-01-04T18:05:10;11.70;99.90
35804;DHT22;21924;51.934;7.414;2023-01-04T18:07:55;11.70;99.90
35804;DHT22;21924;51.934;7.414;2023-01-04T18:10:39;11.70;99.90
35804;DHT22;21924;51.934;7.414;2023-01-04T18:13:25;11.80;99.90
35804;DHT22;21924;51.934;7.414;2023-01-04T18:16:14;11.70;99.90
35804;DHT22;21924;51.934;7.414;2023-01-04T18:18:59;11.70;99.90
35804;DHT22;21924;51.934;7.414;2023-01-04T18:21:43;11.70;99.90
35804;DHT22;21924;51.934;7.414;2023-01-04T18:24:28;11.80;99.90
35804;DHT22;21924;51.934;7.414;2023-01-04T18:27:14;11.70;99.90
35804;DHT22;21924;51.934;7.414;2023-01-04T18:29:58;11.70;99.90
35804;DHT22;21924;51.934;7.414;2023-01-04T18:32:42;11.70;99.90
35804;DHT22;21924;51.934;7.414;2023-01-04T18:35:27;11.70;99.90
35804;DHT22;21924;51.934;7.414;2023-01-04T18:38:11;11.70;99.90
35804;DHT22;21924;51.934;7.414;2023-01-04T18:40:56;11.70;99.90
35804;DHT22;21924;51.934;7.414;2023-01-04T18:43:40;11.70;99.90
35804;DHT22;21924;51.934;7.414;2023-01-04T18:46:24;11.70;99.90
35804;DHT22;21924;51.934;7.414;2023-01-04T18:49:08;11.60;99.90
35804;DHT22;21924;51.934;7.414;2023-01-04T18:51:53;11.70;99.90
35804;DHT22;21924;51.934;7.414;2023-01-04T18:54:37;11.70;99.90
35804;DHT22;21924;51.934;7.414;2023-01-04T18:57:21;11.60;99.90
35804;DHT22;21924;51.934;7.414;2023-01-04T19:00:07;11.70;99.90
35804;DHT22;21924;51.934;7.414;2023-01-04T19:02:52;11.70;99.90
35804;DHT22;21924;51.934;7.414;2023-01-04T19:05:39;11.60;99.90